createdAt,value
2023-04-29T00:01:52.560Z,98121.47
2023-04-29T00:04:18.859Z,98123.94
2023-04-29T00:06:45.159Z,98123.09
2023-04-29T00:09:11.282Z,98128.44
2023-04-29T00:11:37.374Z,98126.19
2023-04-29T00:14:03.472Z,98127.03
2023-04-29T00:16:29.630Z,98137.50
2023-04-29T00:18:55.749Z,98131.34
2023-04-29T00:21:21.845Z,98134.84
2023-04-29T00:23:47.981Z,98132.97
2023-04-29T00:26:14.088Z,98139.97
2023-04-29T00:28:40.188Z,98149.63
2023-04-29T00:31:06.319Z,98146.34
2023-04-29T00:33:32.449Z,98146.34
2023-04-29T00:35:58.547Z,98149.00
2023-04-29T00:38:24.656Z,98149.81
2023-04-29T00:40:50.762Z,98146.34
2023-04-29T00:43:16.874Z,98142.84
2023-04-29T00:45:43.067Z,98149.00
2023-04-29T00:48:09.251Z,98147.38
2023-04-29T00:50:35.397Z,98146.53
2023-04-29T00:53:01.537Z,98152.72
2023-04-29T00:55:27.655Z,98157.22
2023-04-29T00:57:53.763Z,98152.72
2023-04-29T01:00:19.882Z,98142.84
2023-04-29T01:02:46.104Z,98159.69
2023-04-29T01:05:12.241Z,98157.03
2023-04-29T01:07:38.345Z,98164.22
2023-04-29T01:10:04.426Z,98169.56
2023-04-29T01:12:30.535Z,98163.41
2023-04-29T01:14:56.650Z,98166.09
2023-04-29T01:17:22.748Z,98179.44
2023-04-29T01:19:48.845Z,98175.72
2023-04-29T01:22:15.045Z,98176.78
2023-04-29T01:24:41.140Z,98177.59
2023-04-29T01:27:07.235Z,98179.44
2023-04-29T01:29:33.345Z,98179.44
2023-04-29T01:31:59.494Z,98182.13
2023-04-29T01:34:25.609Z,98184.78
2023-04-29T01:36:51.762Z,98181.28
2023-04-29T01:39:17.893Z,98184.78
2023-04-29T01:41:44.118Z,98180.47
2023-04-29T01:44:12.760Z,98195.47
2023-04-29T01:46:38.903Z,98187.47
2023-04-29T01:49:05.158Z,98188.47
2023-04-29T01:51:31.512Z,98195.47
2023-04-29T01:53:57.612Z,98195.47
2023-04-29T01:56:23.696Z,98197.31
2023-04-29T01:58:49.836Z,98197.31
2023-04-29T02:01:15.974Z,98201.84
2023-04-29T02:03:42.140Z,98194.88
2023-04-29T02:06:08.378Z,98196.72
2023-04-29T02:08:34.499Z,98201.03
2023-04-29T02:11:00.610Z,98203.69
2023-04-29T02:13:26.768Z,98204.50
2023-04-29T02:15:52.885Z,98209.84
2023-04-29T02:18:19.007Z,98206.38
2023-04-29T02:20:45.109Z,98208.22
2023-04-29T02:23:11.398Z,98210.91
2023-04-29T02:25:37.833Z,98217.25
2023-04-29T02:28:04.838Z,98216.25
2023-04-29T02:30:31.437Z,98222.59
2023-04-29T02:32:57.714Z,98224.25
2023-04-29T02:35:23.978Z,98221.59
2023-04-29T02:37:50.363Z,98229.59
2023-04-29T02:40:17.391Z,98227.94
2023-04-29T02:42:44.255Z,98220.97
2023-04-29T02:45:10.561Z,98228.78
2023-04-29T02:47:36.798Z,98230.84
2023-04-29T02:50:03.227Z,98234.31
2023-04-29T02:52:29.451Z,98233.50
2023-04-29T02:54:55.638Z,98232.69
2023-04-29T02:57:21.832Z,98230.84
2023-04-29T02:59:48.098Z,98239.66
2023-04-29T03:02:14.276Z,98237.00
2023-04-29T03:04:40.618Z,98240.47
2023-04-29T03:07:06.957Z,98243.97
2023-04-29T03:09:33.204Z,98248.50
2023-04-29T03:11:59.742Z,98245.84
2023-04-29T03:14:27.214Z,98233.50
2023-04-29T03:16:53.347Z,98242.34
2023-04-29T03:19:19.488Z,98250.34
2023-04-29T03:21:45.577Z,98251.41
2023-04-29T03:24:11.669Z,98255.09
2023-04-29T03:26:37.781Z,98259.63
2023-04-29T03:29:03.884Z,98268.63
2023-04-29T03:31:30.063Z,98268.63
2023-04-29T03:33:56.263Z,98264.97
2023-04-29T03:36:22.350Z,98267.81
2023-04-29T03:38:48.461Z,98259.00
2023-04-29T03:41:14.581Z,98267.63
2023-04-29T03:43:40.685Z,98264.97
2023-04-29T03:46:06.825Z,98269.50
2023-04-29T03:48:32.971Z,98276.66
2023-04-29T03:50:59.091Z,98278.31
2023-04-29T03:53:25.222Z,98276.47
2023-04-29T03:55:51.345Z,98279.31
2023-04-29T03:58:17.482Z,98274.81
2023-04-29T04:00:43.567Z,98281.81
2023-04-29T04:03:09.751Z,98284.66
2023-04-29T04:05:35.920Z,98284.66
2023-04-29T04:08:02.016Z,98293.53
2023-04-29T04:10:28.136Z,98297.03
2023-04-29T04:12:54.237Z,98298.03
2023-04-29T04:15:20.344Z,98304.22
2023-04-29T04:17:46.482Z,98305.22
2023-04-29T04:20:12.591Z,98309.56
2023-04-29T04:22:38.705Z,98313.25
2023-04-29T04:25:04.842Z,98317.59
2023-04-29T04:27:30.935Z,98320.44
2023-04-29T04:29:57.027Z,98318.59
2023-04-29T04:32:23.157Z,98311.38
2023-04-29T04:34:49.265Z,98320.25
2023-04-29T04:37:15.374Z,98320.44
2023-04-29T04:39:41.499Z,98331.75
2023-04-29T04:42:07.623Z,98326.41
2023-04-29T04:44:33.775Z,98322.06
2023-04-29T04:46:59.944Z,98327.41
2023-04-29T04:49:26.072Z,98329.91
2023-04-29T04:51:52.175Z,98339.97
2023-04-29T04:54:18.283Z,98339.16
2023-04-29T04:56:44.393Z,98335.66
2023-04-29T04:59:10.490Z,98341.44
2023-04-29T05:01:37.100Z,98348.41
2023-04-29T05:04:03.369Z,98346.34
2023-04-29T05:06:29.596Z,98346.34
2023-04-29T05:08:55.694Z,98353.31
2023-04-29T05:11:21.778Z,98347.34
2023-04-29T05:13:47.878Z,98357.22
2023-04-29T05:16:14.053Z,98357.44
2023-04-29T05:18:40.156Z,98362.81
2023-04-29T05:21:06.246Z,98352.13
2023-04-29T05:23:32.363Z,98358.03
2023-04-29T05:25:58.463Z,98360.72
2023-04-29T05:28:26.051Z,98357.22
2023-04-29T05:30:53.732Z,98363.81
2023-04-29T05:33:19.867Z,98367.09
2023-04-29T05:35:45.970Z,98362.56
2023-04-29T05:38:12.116Z,98371.41
2023-04-29T05:40:38.557Z,98373.47
2023-04-29T05:43:04.672Z,98377.59
2023-04-29T05:45:31.132Z,98385.41
2023-04-29T05:47:57.273Z,98381.06
2023-04-29T05:50:23.438Z,98391.34
2023-04-29T05:52:49.584Z,98391.16
2023-04-29T05:55:15.685Z,98400.78
2023-04-29T05:57:41.781Z,98410.47
2023-04-29T06:00:07.954Z,98407.97
2023-04-29T06:02:37.368Z,98413.75
2023-04-29T06:05:05.641Z,98413.56
2023-04-29T06:07:32.116Z,98416.00
2023-04-29T06:09:58.232Z,98424.03
2023-04-29T06:12:24.340Z,98423.22
2023-04-29T06:14:50.490Z,98425.06
2023-04-29T06:17:16.589Z,98433.06
2023-04-29T06:19:42.748Z,98441.09
2023-04-29T06:22:08.913Z,98438.41
2023-04-29T06:24:35.011Z,98435.75
2023-04-29T06:27:01.113Z,98439.25
2023-04-29T06:29:27.224Z,98451.78
2023-04-29T06:31:53.388Z,98453.63
2023-04-29T06:34:19.501Z,98445.63
2023-04-29T06:36:45.610Z,98456.31
2023-04-29T06:39:11.713Z,98459.78
2023-04-29T06:41:37.801Z,98457.31
2023-04-29T06:44:03.950Z,98464.31
2023-04-29T06:46:36.310Z,98465.34
2023-04-29T06:49:02.794Z,98468.00
2023-04-29T06:51:29.161Z,98480.34
2023-04-29T06:53:55.393Z,98475.00
2023-04-29T06:56:21.624Z,98488.38
2023-04-29T06:58:47.742Z,98485.69
2023-04-29T07:01:13.865Z,98484.03
2023-04-29T07:03:40.122Z,98484.03
2023-04-29T07:06:06.542Z,98485.06
2023-04-29T07:08:32.670Z,98485.06
2023-04-29T07:10:58.812Z,98493.91
2023-04-29T07:13:24.966Z,98498.22
2023-04-29T07:15:51.057Z,98507.25
2023-04-29T07:18:17.167Z,98507.25
2023-04-29T07:20:43.289Z,98513.41
2023-04-29T07:23:09.379Z,98524.94
2023-04-29T07:25:35.499Z,98523.91
2023-04-29T07:28:01.635Z,98524.09
2023-04-29T07:30:27.749Z,98530.50
2023-04-29T07:32:53.879Z,98534.78
2023-04-29T07:35:20.150Z,98530.50
2023-04-29T07:37:46.231Z,98541.19
2023-04-29T07:40:12.329Z,98539.50
2023-04-29T07:42:38.462Z,98541.19
2023-04-29T07:45:04.566Z,98546.53
2023-04-29T07:47:30.681Z,98548.38
2023-04-29T07:49:56.798Z,98556.38
2023-04-29T07:52:22.893Z,98553.72
2023-04-29T07:54:48.986Z,98553.72
2023-04-29T07:57:15.922Z,98561.91
2023-04-29T07:59:42.023Z,98568.91
2023-04-29T08:02:08.129Z,98576.91
2023-04-29T08:04:34.468Z,98578.59
2023-04-29T08:07:00.734Z,98584.75
2023-04-29T08:09:26.819Z,98586.78
2023-04-29T08:11:53.152Z,98587.59
2023-04-29T08:14:19.252Z,98590.28
2023-04-29T08:16:45.402Z,98592.94
2023-04-29T08:19:11.562Z,98587.59
2023-04-29T08:21:37.665Z,98582.47
2023-04-29T08:24:03.771Z,98585.97
2023-04-29T08:26:29.933Z,98588.81
2023-04-29T08:28:56.040Z,98597.66
2023-04-29T08:31:22.159Z,98592.13
2023-04-29T08:33:48.303Z,98603.63
2023-04-29T08:36:14.398Z,98602.00
2023-04-29T08:38:40.495Z,98605.69
2023-04-29T08:41:06.609Z,98613.50
2023-04-29T08:43:32.700Z,98605.47
2023-04-29T08:45:58.828Z,98610.00
2023-04-29T08:48:25.039Z,98624.19
2023-04-29T08:50:51.396Z,98618.84
2023-04-29T08:53:17.811Z,98620.50
2023-04-29T08:55:44.163Z,98621.50
2023-04-29T08:58:10.469Z,98629.53
2023-04-29T09:00:36.564Z,98630.34
2023-04-29T09:03:02.846Z,98632.19
2023-04-29T09:05:29.000Z,98641.03
2023-04-29T09:07:55.104Z,98637.72
2023-04-29T09:10:21.294Z,98637.53
2023-04-29T09:12:47.416Z,98637.72
2023-04-29T09:15:13.538Z,98637.72
2023-04-29T09:17:39.709Z,98643.72
2023-04-29T09:20:05.838Z,98646.59
2023-04-29T09:22:31.941Z,98654.63
2023-04-29T09:24:58.043Z,98655.44
2023-04-29T09:27:24.166Z,98666.13
2023-04-29T09:29:50.383Z,98660.97
2023-04-29T09:32:16.635Z,98667.75
2023-04-29T09:34:42.756Z,98668.78
2023-04-29T09:37:08.862Z,98666.13
2023-04-29T09:39:34.972Z,98661.78
2023-04-29T09:42:01.070Z,98672.28
2023-04-29T09:44:27.187Z,98671.47
2023-04-29T09:46:53.313Z,98667.13
2023-04-29T09:49:19.404Z,98675.13
2023-04-29T09:51:45.511Z,98687.50
2023-04-29T09:54:11.625Z,98681.31
2023-04-29T09:56:37.717Z,98691.16
2023-04-29T09:59:03.845Z,98684.00
2023-04-29T10:01:30.035Z,98687.69
2023-04-29T10:03:56.297Z,98685.81
2023-04-29T10:06:22.412Z,98690.34
2023-04-29T10:08:48.533Z,98688.50
2023-04-29T10:11:14.631Z,98685.81
2023-04-29T10:13:40.909Z,98691.16
2023-04-29T10:16:08.224Z,98690.34
2023-04-29T10:18:34.551Z,98696.06
2023-04-29T10:21:00.748Z,98696.25
2023-04-29T10:23:26.897Z,98695.44
2023-04-29T10:25:53.027Z,98699.94
2023-04-29T10:28:19.139Z,98703.44
2023-04-29T10:30:45.272Z,98702.63
2023-04-29T10:33:11.429Z,98698.09
2023-04-29T10:35:37.587Z,98699.94
2023-04-29T10:38:03.728Z,98698.09
2023-04-29T10:40:29.838Z,98702.44
2023-04-29T10:42:55.935Z,98703.44
2023-04-29T10:45:22.070Z,98701.81
2023-04-29T10:47:48.229Z,98702.63
2023-04-29T10:50:14.414Z,98706.94
2023-04-29T10:52:40.592Z,98705.28
2023-04-29T10:55:06.696Z,98705.28
2023-04-29T10:57:32.818Z,98707.97
2023-04-29T10:59:58.963Z,98709.81
2023-04-29T11:02:25.140Z,98711.63
2023-04-29T11:04:51.539Z,98705.28
2023-04-29T11:07:18.075Z,98712.50
2023-04-29T11:09:44.204Z,98718.66
2023-04-29T11:12:10.312Z,98721.31
2023-04-29T11:14:36.599Z,98726.66
2023-04-29T11:17:02.863Z,98721.31
2023-04-29T11:19:28.951Z,98724.81
2023-04-29T11:21:55.064Z,98716.81
2023-04-29T11:24:21.180Z,98722.31
2023-04-29T11:26:47.307Z,98717.63
2023-04-29T11:29:13.408Z,98727.47
2023-04-29T11:31:39.654Z,98729.34
2023-04-29T11:34:05.881Z,98729.16
2023-04-29T11:36:32.057Z,98741.66
2023-04-29T11:38:58.147Z,98727.47
2023-04-29T11:41:24.246Z,98736.31
2023-04-29T11:43:50.358Z,98740.84
2023-04-29T11:46:16.448Z,98736.31
2023-04-29T11:48:42.545Z,98742.50
2023-04-29T11:51:08.654Z,98747.84
2023-04-29T11:53:34.758Z,98742.50
2023-04-29T11:56:00.856Z,98751.34
2023-04-29T11:58:26.971Z,98749.69
2023-04-29T12:00:53.069Z,98752.34
2023-04-29T12:03:19.458Z,98755.88
2023-04-29T12:05:45.849Z,98751.34
2023-04-29T12:08:12.029Z,98751.34
2023-04-29T12:10:38.133Z,98760.19
2023-04-29T12:13:04.318Z,98759.34
2023-04-29T12:15:30.494Z,98747.84
2023-04-29T12:17:56.656Z,98754.84
2023-04-29T12:20:22.844Z,98755.88
2023-04-29T12:22:48.960Z,98755.88
2023-04-29T12:25:15.053Z,98758.53
2023-04-29T12:27:41.170Z,98760.19
2023-04-29T12:30:07.268Z,98762.03
2023-04-29T12:32:33.408Z,98767.38
2023-04-29T12:34:59.530Z,98763.88
2023-04-29T12:37:25.631Z,98772.72
2023-04-29T12:39:51.741Z,98769.22
2023-04-29T12:42:17.894Z,98771.91
2023-04-29T12:44:44.099Z,98770.03
2023-04-29T12:47:10.366Z,98769.22
2023-04-29T12:49:36.552Z,98772.72
2023-04-29T12:52:02.692Z,98773.53
2023-04-29T12:54:28.802Z,98770.03
2023-04-29T12:56:54.930Z,98770.88
2023-04-29T12:59:21.231Z,98767.38
2023-04-29T13:01:47.425Z,98776.22
2023-04-29T13:04:13.712Z,98770.03
2023-04-29T13:06:39.892Z,98770.88
2023-04-29T13:09:06.004Z,98769.00
2023-04-29T13:11:34.521Z,98768.19
2023-04-29T13:14:00.997Z,98771.69
2023-04-29T13:16:27.161Z,98777.03
2023-04-29T13:19:08.153Z,98780.50
2023-04-29T13:21:39.411Z,98785.03
2023-04-29T13:24:05.552Z,98780.34
2023-04-29T13:26:31.738Z,98785.88
2023-04-29T13:28:57.924Z,98776.03
2023-04-29T13:31:24.108Z,98777.84
2023-04-29T13:33:53.652Z,98784.03
2023-04-29T13:36:20.276Z,98778.69
2023-04-29T13:38:48.607Z,98782.19
2023-04-29T13:41:17.253Z,98784.03
2023-04-29T13:43:44.181Z,98784.03
2023-04-29T13:46:11.510Z,98789.38
2023-04-29T13:51:46.106Z,98792.06
2023-04-29T14:02:08.127Z,98798.03
2023-04-29T14:04:06.091Z,98799.88
2023-04-29T14:06:32.356Z,98798.03
2023-04-29T14:08:58.477Z,98807.91
2023-04-29T14:11:24.571Z,98806.06
2023-04-29T14:13:50.688Z,98805.22
2023-04-29T14:16:16.834Z,98810.38
2023-04-29T14:18:42.992Z,98811.41
2023-04-29T14:21:09.572Z,98806.06
2023-04-29T14:23:35.675Z,98801.56
2023-04-29T14:26:17.230Z,98802.38
2023-04-29T14:28:47.859Z,98812.03
2023-04-29T14:31:14.025Z,98807.72
2023-04-29T14:33:40.179Z,98805.88
2023-04-29T14:36:06.290Z,98811.41
2023-04-29T14:38:32.396Z,98816.56
2023-04-29T14:40:58.534Z,98810.38
2023-04-29T14:43:24.655Z,98815.75
2023-04-29T14:45:50.773Z,98816.56
2023-04-29T14:48:16.920Z,98821.72
2023-04-29T14:50:43.427Z,98820.03
2023-04-29T14:53:09.503Z,98825.38
2023-04-29T14:55:35.614Z,98833.41
2023-04-29T14:58:01.733Z,98829.72
2023-04-29T15:00:27.850Z,98833.41
2023-04-29T15:02:54.001Z,98832.41
2023-04-29T15:05:20.176Z,98832.41
2023-04-29T15:07:46.280Z,98835.06
2023-04-29T15:10:12.412Z,98835.91
2023-04-29T15:12:38.523Z,98837.75
2023-04-29T15:15:04.667Z,98840.41
2023-04-29T15:17:30.852Z,98842.06
2023-04-29T15:19:56.984Z,98841.25
2023-04-29T15:22:23.083Z,98848.44
2023-04-29T15:27:20.223Z,98850.91
2023-04-29T15:29:46.313Z,98849.25
2023-04-29T15:32:12.491Z,98850.06
2023-04-29T15:34:38.632Z,98842.88
2023-04-29T15:37:04.726Z,98844.72
2023-04-29T15:39:30.829Z,98852.75
2023-04-29T15:41:56.955Z,98850.91
2023-04-29T15:44:23.052Z,98859.75
2023-04-29T15:46:49.177Z,98854.41
2023-04-29T15:49:15.303Z,98857.09
2023-04-29T15:51:41.391Z,98858.91
2023-04-29T15:54:07.495Z,98862.44
2023-04-29T15:56:33.616Z,98865.94
2023-04-29T15:58:59.704Z,98871.28
2023-04-29T16:01:25.830Z,98866.75
2023-04-29T16:03:52.002Z,98864.06
2023-04-29T16:06:18.520Z,98859.75
2023-04-29T16:08:44.949Z,98859.75
2023-04-29T16:11:11.097Z,98869.41
2023-04-29T16:13:37.234Z,98864.06
2023-04-29T16:16:03.333Z,98861.41
2023-04-29T16:18:29.567Z,98870.25
2023-04-29T16:20:55.671Z,98870.06
2023-04-29T16:23:23.014Z,98871.06
2023-04-29T16:25:49.289Z,98873.72
2023-04-29T16:28:15.405Z,98876.41
2023-04-29T16:30:41.517Z,98870.88
2023-04-29T16:33:07.645Z,98873.72
2023-04-29T16:35:33.763Z,98881.75
2023-04-29T16:37:59.886Z,98880.75
2023-04-29T16:40:26.012Z,98878.06
2023-04-29T16:42:52.682Z,98875.41
2023-04-29T16:45:18.871Z,98871.06
2023-04-29T16:47:45.649Z,98878.88
2023-04-29T16:50:11.788Z,98871.06
2023-04-29T16:52:37.946Z,98874.56
2023-04-29T16:55:04.154Z,98877.03
2023-04-29T16:57:30.285Z,98882.38
2023-04-29T16:59:56.624Z,98875.41
2023-04-29T17:02:24.273Z,98878.06
2023-04-29T17:04:50.520Z,98879.72
2023-04-29T17:07:16.723Z,98879.72
2023-04-29T17:09:42.834Z,98885.06
2023-04-29T17:12:08.930Z,98891.22
2023-04-29T17:14:35.019Z,98887.72
2023-04-29T17:17:01.129Z,98879.72
2023-04-29T17:19:27.223Z,98894.75
2023-04-29T17:21:53.316Z,98892.06
2023-04-29T17:24:19.419Z,98899.22
2023-04-29T17:26:45.546Z,98892.06
2023-04-29T17:29:11.643Z,98893.91
2023-04-29T17:31:38.321Z,98893.91
2023-04-29T17:34:04.481Z,98888.53
2023-04-29T17:36:30.593Z,98889.41
2023-04-29T17:38:56.702Z,98892.88
2023-04-29T17:41:22.799Z,98892.06
2023-04-29T17:43:48.899Z,98891.03
2023-04-29T17:46:15.066Z,98884.88
2023-04-29T17:48:41.166Z,98893.72
2023-04-29T17:51:07.279Z,98892.88
2023-04-29T17:53:33.467Z,98897.19
2023-04-29T17:55:59.592Z,98896.38
2023-04-29T17:58:25.758Z,98892.88
2023-04-29T18:00:51.906Z,98900.72
2023-04-29T18:03:18.107Z,98898.06
2023-04-29T18:05:44.256Z,98898.88
2023-04-29T18:08:10.371Z,98898.06
2023-04-29T18:10:36.467Z,98901.72
2023-04-29T18:13:02.656Z,98898.06
2023-04-29T18:15:28.779Z,98899.88
2023-04-29T18:17:54.910Z,98898.06
2023-04-29T18:20:21.042Z,98904.22
2023-04-29T18:22:47.170Z,98904.41
2023-04-29T18:25:13.285Z,98908.75
2023-04-29T18:27:39.382Z,98908.75
2023-04-29T18:30:05.506Z,98907.72
2023-04-29T18:32:31.703Z,98906.06
2023-04-29T18:34:57.825Z,98905.22
2023-04-29T18:37:23.952Z,98911.41
2023-04-29T18:39:50.086Z,98907.72
2023-04-29T18:42:16.194Z,98907.72
2023-04-29T18:44:42.337Z,98906.69
2023-04-29T18:47:08.422Z,98920.03
2023-04-29T18:49:36.500Z,98917.38
2023-04-29T18:52:04.276Z,98917.38
2023-04-29T18:54:30.461Z,98921.72
2023-04-29T18:56:56.569Z,98911.22
2023-04-29T18:59:22.678Z,98920.91
2023-04-29T19:01:49.034Z,98920.91
2023-04-29T19:04:15.337Z,98918.22
2023-04-29T19:06:41.763Z,98918.22
2023-04-29T19:09:08.067Z,98922.72
2023-04-29T19:11:34.188Z,98925.38
2023-04-29T19:14:00.350Z,98925.22
2023-04-29T19:16:26.682Z,98928.06
2023-04-29T19:18:52.871Z,98940.41
2023-04-29T19:21:18.994Z,98933.41
2023-04-29T19:23:45.109Z,98928.91
2023-04-29T19:26:11.281Z,98936.94
2023-04-29T19:28:37.403Z,98943.09
2023-04-29T19:31:03.555Z,98941.25
2023-04-29T19:33:29.672Z,98940.41
2023-04-29T19:35:56.174Z,98947.41
2023-04-29T19:38:22.495Z,98948.22
2023-04-29T19:40:48.595Z,98946.59
2023-04-29T19:43:14.778Z,98949.25
2023-04-29T19:45:40.910Z,98942.88
2023-04-29T19:48:07.103Z,98942.88
2023-04-29T19:50:33.229Z,98941.06
2023-04-29T19:52:59.307Z,98944.56
2023-04-29T19:55:25.416Z,98949.06
2023-04-29T19:57:52.027Z,98943.72
2023-04-29T20:00:18.141Z,98951.75
2023-04-29T20:02:44.433Z,98955.41
2023-04-29T20:05:10.755Z,98949.06
2023-04-29T20:07:36.870Z,98954.44
2023-04-29T20:10:03.003Z,98957.09
2023-04-29T20:12:29.116Z,98954.59
2023-04-29T20:14:56.289Z,98953.56
2023-04-29T20:17:22.423Z,98951.94
2023-04-29T20:19:48.564Z,98952.75
2023-04-29T20:22:14.851Z,98955.41
2023-04-29T20:24:40.957Z,98958.91
2023-04-29T20:27:07.085Z,98963.44
2023-04-29T20:29:33.211Z,98963.44
2023-04-29T20:31:59.352Z,98974.94
2023-04-29T20:34:25.988Z,98970.47
2023-04-29T20:36:52.101Z,98977.63
2023-04-29T20:39:18.195Z,98983.81
2023-04-29T20:41:44.337Z,98982.16
2023-04-29T20:44:10.421Z,98975.97
2023-04-29T20:46:36.544Z,98977.84
2023-04-29T20:49:02.677Z,98982.16
2023-04-29T20:51:28.794Z,98984.00
2023-04-29T20:53:54.884Z,98984.00
2023-04-29T20:56:21.018Z,98992.84
2023-04-29T20:58:47.111Z,98992.84
2023-04-29T21:01:13.262Z,98992.84
2023-04-29T21:03:39.492Z,98999.84
2023-04-29T21:06:05.633Z,98998.19
2023-04-29T21:08:31.784Z,99013.22
2023-04-29T21:10:57.906Z,99011.53
2023-04-29T21:13:24.022Z,99005.38
2023-04-29T21:15:50.153Z,99004.56
2023-04-29T21:18:16.444Z,99006.19
2023-04-29T21:20:42.585Z,99005.38
2023-04-29T21:23:08.683Z,99008.88
2023-04-29T21:25:34.813Z,99012.38
2023-04-29T21:28:00.911Z,99016.06
2023-04-29T21:30:27.015Z,99016.06
2023-04-29T21:32:53.244Z,99010.72
2023-04-29T21:35:19.430Z,99017.09
2023-04-29T21:37:45.524Z,99014.44
2023-04-29T21:40:11.627Z,99012.56
2023-04-29T21:42:37.741Z,99020.59
2023-04-29T21:45:03.855Z,99018.75
2023-04-29T21:47:30.055Z,99019.78
2023-04-29T21:49:56.450Z,99029.63
2023-04-29T21:52:22.765Z,99031.28
2023-04-29T21:54:48.888Z,99029.44
2023-04-29T21:57:14.992Z,99033.13
2023-04-29T21:59:41.109Z,99022.44
2023-04-29T22:02:07.503Z,99032.09
2023-04-29T22:04:33.639Z,99032.28
2023-04-29T22:07:00.038Z,99035.81
2023-04-29T22:09:26.204Z,99034.78
2023-04-29T22:11:52.476Z,99032.28
2023-04-29T22:14:18.576Z,99039.31
2023-04-29T22:16:44.897Z,99032.28
2023-04-29T22:19:11.125Z,99035.81
2023-04-29T22:21:37.308Z,99042.16
2023-04-29T22:24:03.469Z,99048.31
2023-04-29T22:26:29.608Z,99040.31
2023-04-29T22:28:59.062Z,99056.34
2023-04-29T22:31:25.397Z,99058.19
2023-04-29T22:33:51.641Z,99055.50
2023-04-29T22:36:17.743Z,99051.00
2023-04-29T22:38:43.896Z,99058.19
2023-04-29T22:41:09.976Z,99057.38
2023-04-29T22:43:36.061Z,99061.69
2023-04-29T22:46:02.283Z,99063.53
2023-04-29T22:48:28.383Z,99069.69
2023-04-29T22:50:54.483Z,99069.69
2023-04-29T22:53:20.614Z,99068.88
2023-04-29T22:55:46.732Z,99067.22
2023-04-29T22:58:12.848Z,99062.72
2023-04-29T23:00:38.948Z,99063.75
2023-04-29T23:03:05.071Z,99072.59
2023-04-29T23:05:31.538Z,99070.72
2023-04-29T23:07:57.656Z,99077.09
2023-04-29T23:10:23.745Z,99075.25
2023-04-29T23:12:49.845Z,99077.09
2023-04-29T23:15:15.960Z,99079.78
2023-04-29T23:17:42.086Z,99083.28
2023-04-29T23:20:08.215Z,99083.44
2023-04-29T23:22:34.328Z,99081.59
2023-04-29T23:25:00.421Z,99084.28
2023-04-29T23:27:26.537Z,99084.28
2023-04-29T23:29:52.882Z,99091.28
2023-04-29T23:32:19.187Z,99089.63
2023-04-29T23:34:46.282Z,99092.28
2023-04-29T23:37:12.741Z,99093.13
2023-04-29T23:39:38.854Z,99097.63
2023-04-29T23:42:04.982Z,99088.78
2023-04-29T23:44:31.109Z,99087.16
2023-04-29T23:46:57.319Z,99096.81
2023-04-29T23:49:23.544Z,99097.63
2023-04-29T23:51:49.722Z,99086.28
2023-04-29T23:54:15.813Z,99090.66
2023-04-29T23:56:41.970Z,99092.50
2023-04-29T23:59:08.071Z,99084.47
